Time;durP1;ratioP1;P1;durP2;ratioP2;P2;SDS_P1;SDS_P2;PMS_P1;PMS_P2;Temp;Humidity;BMP_temperature;BMP_pressure;BME280_temperature;BME280_humidity;BME280_pressure;Samples;Min_cycle;Max_cycle;Signal;HPM_P1;HPM_P2
2021/12/30 00:01:21;;;;;;;41.03;10.02;;;8.40;98.10;;;;;;5154144;27;20046;-80
2021/12/30 00:03:48;;;;;;;36.45;9.10;;;8.50;98.30;;;;;;5154212;27;20042;-80
2021/12/30 00:06:17;;;;;;;46.22;8.35;;;8.50;98.30;;;;;;5153854;27;20470;-80
2021/12/30 00:08:46;;;;;;;41.60;10.70;;;8.50;98.20;;;;;;5154302;27;20134;-81
2021/12/30 00:11:12;;;;;;;46.00;10.45;;;8.50;98.20;;;;;;5153740;27;20054;-80
2021/12/30 00:13:44;;;;;;;41.53;9.75;;;8.50;98.10;;;;;;5136952;27;20042;-80
2021/12/30 00:16:10;;;;;;;47.50;10.30;;;8.50;98.20;;;;;;5154126;27;20389;-79
2021/12/30 00:18:35;;;;;;;58.55;12.23;;;8.40;98.20;;;;;;5153832;27;20129;-80
2021/12/30 00:21:01;;;;;;;40.53;8.88;;;8.40;98.30;;;;;;5136845;27;20043;-80
2021/12/30 00:23:27;;;;;;;42.95;10.02;;;8.40;98.20;;;;;;5153970;27;20497;-79
2021/12/30 00:25:53;;;;;;;38.05;10.15;;;8.40;98.40;;;;;;5136538;27;20034;-79
2021/12/30 00:28:24;;;;;;;45.90;8.80;;;8.40;98.30;;;;;;5153982;27;20091;-80
2021/12/30 00:30:52;;;;;;;45.58;13.63;;;8.40;98.20;;;;;;5153998;27;20439;-80
2021/12/30 00:33:19;;;;;;;41.63;9.27;;;8.30;98.20;;;;;;5136377;27;20043;-79
2021/12/30 00:35:45;;;;;;;53.33;10.32;;;8.30;98.20;;;;;;5153505;27;20043;-79
2021/12/30 00:38:10;;;;;;;48.90;12.80;;;8.20;98.20;;;;;;5136409;27;20095;-80
2021/12/30 00:40:39;;;;;;;45.33;9.10;;;8.20;98.20;;;;;;5119205;27;20034;-80
2021/12/30 00:43:06;;;;;;;43.45;10.00;;;8.20;98.30;;;;;;5153466;27;20038;-80
2021/12/30 00:45:33;;;;;;;48.85;9.95;;;8.20;98.10;;;;;;5153488;27;20052;-79
2021/12/30 00:48:00;;;;;;;58.58;10.48;;;8.20;98.10;;;;;;5136151;27;20136;-80
2021/12/30 00:50:26;;;;;;;39.28;8.88;;;8.20;98.00;;;;;;5153393;27;20042;-79
2021/12/30 00:52:52;;;;;;;42.03;8.60;;;8.20;98.00;;;;;;5153460;27;20043;-79
2021/12/30 00:55:19;;;;;;;43.03;9.55;;;8.10;97.90;;;;;;5136291;27;20061;-80
2021/12/30 00:57:45;;;;;;;45.70;8.77;;;8.10;97.70;;;;;;5153400;27;20083;-78
2021/12/30 01:00:14;;;;;;;41.33;7.90;;;8.10;97.80;;;;;;5136107;27;20031;-80
2021/12/30 01:02:40;;;;;;;40.25;8.23;;;8.10;97.60;;;;;;5135892;27;20526;-79
2021/12/30 01:05:07;;;;;;;46.92;9.65;;;8.00;97.60;;;;;;5119201;27;20167;-79
2021/12/30 01:07:33;;;;;;;55.67;17.80;;;7.90;97.60;;;;;;5136304;27;20038;-78
2021/12/30 01:09:59;;;;;;;45.10;10.70;;;7.90;97.70;;;;;;5153092;27;20054;-79
2021/12/30 01:12:26;;;;;;;46.45;9.57;;;7.80;97.60;;;;;;5119032;27;20182;-79
2021/12/30 01:14:52;;;;;;;42.53;9.52;;;7.80;97.70;;;;;;5153375;27;20393;-79
2021/12/30 01:17:38;;;;;;;43.22;12.23;;;7.80;97.80;;;;;;5153161;27;20126;-79
2021/12/30 01:20:05;;;;;;;48.17;8.85;;;7.80;97.70;;;;;;5153215;27;20046;-79
2021/12/30 01:22:33;;;;;;;56.70;15.40;;;7.70;97.80;;;;;;5153201;27;20095;-79
2021/12/30 01:24:59;;;;;;;55.08;12.40;;;7.80;97.80;;;;;;5152950;27;20050;-79
2021/12/30 01:27:25;;;;;;;44.42;8.50;;;7.70;97.80;;;;;;5135644;27;20046;-80
2021/12/30 01:29:50;;;;;;;35.42;7.63;;;7.70;97.80;;;;;;5118732;27;20035;-80
2021/12/30 01:32:17;;;;;;;54.55;8.45;;;7.80;97.90;;;;;;5135820;27;20042;-79
2021/12/30 01:34:42;;;;;;;41.67;8.30;;;7.70;97.60;;;;;;5153178;27;20099;-79
2021/12/30 01:37:08;;;;;;;50.55;9.05;;;7.70;97.60;;;;;;5135780;27;20038;-79
2021/12/30 01:39:37;;;;;;;41.67;10.73;;;7.70;97.60;;;;;;5135780;27;20126;-79
2021/12/30 01:42:05;;;;;;;36.70;8.73;;;7.60;97.50;;;;;;5135966;27;20065;-80
2021/12/30 01:44:33;;;;;;;41.90;8.05;;;7.60;97.50;;;;;;5152826;27;20134;-80
2021/12/30 01:47:00;;;;;;;41.38;8.48;;;7.60;97.70;;;;;;5135586;27;20042;-79
2021/12/30 01:49:26;;;;;;;36.88;7.78;;;7.50;97.60;;;;;;5152862;27;20039;-79
2021/12/30 01:51:53;;;;;;;44.92;8.48;;;7.50;97.70;;;;;;5152866;27;20066;-80
2021/12/30 01:54:20;;;;;;;38.25;8.45;;;7.50;97.70;;;;;;5135623;27;20038;-79
2021/12/30 01:56:48;;;;;;;36.95;7.63;;;7.50;97.70;;;;;;5135637;27;20049;-80
2021/12/30 01:59:14;;;;;;;42.30;8.50;;;7.40;97.80;;;;;;5135551;27;20038;-80
2021/12/30 02:01:40;;;;;;;41.85;9.15;;;7.50;97.80;;;;;;5154568;27;20035;-80
2021/12/30 02:04:05;;;;;;;44.95;10.60;;;7.50;97.90;;;;;;5122237;27;20039;-80
2021/12/30 02:06:31;;;;;;;44.50;8.98;;;7.40;97.90;;;;;;5156391;27;20490;-79
2021/12/30 02:08:59;;;;;;;43.42;9.13;;;7.50;97.90;;;;;;5156591;27;20027;-80
2021/12/30 02:11:25;;;;;;;42.00;7.95;;;7.50;97.90;;;;;;5156579;27;20042;-80
2021/12/30 02:13:52;;;;;;;45.40;10.80;;;7.40;97.90;;;;;;5156330;27;20042;-79
2021/12/30 02:16:20;;;;;;;45.00;8.85;;;7.40;97.90;;;;;;5156240;27;20038;-79
2021/12/30 02:18:46;;;;;;;43.05;8.68;;;7.50;97.90;;;;;;5156218;27;20050;-79
2021/12/30 02:21:12;;;;;;;49.65;8.75;;;7.40;97.80;;;;;;5156219;27;20039;-78
2021/12/30 02:23:38;;;;;;;38.70;7.60;;;7.40;97.90;;;;;;5138799;27;20106;-79
2021/12/30 02:26:11;;;;;;;44.10;10.25;;;7.50;97.90;;;;;;5156073;27;20077;-79
2021/12/30 02:28:38;;;;;;;45.45;7.90;;;7.50;97.90;;;;;;5156122;27;20094;-79
2021/12/30 02:31:08;;;;;;;40.03;7.93;;;7.50;97.90;;;;;;5156237;27;20497;-80
2021/12/30 02:33:34;;;;;;;46.45;7.22;;;7.50;98.00;;;;;;5155955;27;20043;-78
2021/12/30 02:36:00;;;;;;;44.13;7.57;;;7.40;97.90;;;;;;5156096;27;20047;-79
2021/12/30 02:38:26;;;;;;;50.38;8.82;;;7.50;97.90;;;;;;5155770;27;20394;-79
2021/12/30 02:40:55;;;;;;;35.78;8.40;;;7.60;98.00;;;;;;5155818;27;20038;-79
2021/12/30 02:43:24;;;;;;;54.92;9.18;;;7.60;98.10;;;;;;5155836;27;20042;-79
2021/12/30 02:45:51;;;;;;;43.88;8.75;;;7.60;98.10;;;;;;5155671;27;20042;-79
2021/12/30 02:48:23;;;;;;;43.50;10.13;;;7.60;98.30;;;;;;5155692;27;20510;-79
2021/12/30 02:50:51;;;;;;;53.13;10.43;;;7.60;98.10;;;;;;5155604;27;20042;-79
2021/12/30 02:53:17;;;;;;;54.10;10.38;;;7.60;98.10;;;;;;5155632;27;20130;-79
2021/12/30 02:55:43;;;;;;;51.13;10.10;;;7.70;98.40;;;;;;5138388;27;20070;-80
2021/12/30 02:58:11;;;;;;;48.58;9.55;;;7.70;98.30;;;;;;5155410;27;20039;-80
2021/12/30 03:00:37;;;;;;;51.53;8.57;;;7.60;98.20;;;;;;5155713;27;20487;-79
2021/12/30 03:03:04;;;;;;;57.30;10.85;;;7.60;98.30;;;;;;5155533;27;20064;-79
2021/12/30 03:05:30;;;;;;;56.30;10.07;;;7.50;98.30;;;;;;5155467;27;20391;-80
2021/12/30 03:07:56;;;;;;;54.83;9.80;;;7.40;98.30;;;;;;5137961;27;20044;-80
2021/12/30 03:10:24;;;;;;;53.30;8.98;;;7.40;98.30;;;;;;5152906;27;20050;-79
2021/12/30 03:12:55;;;;;;;55.47;9.65;;;7.40;98.60;;;;;;5154295;27;20117;-79
2021/12/30 03:15:23;;;;;;;48.40;11.05;;;7.40;98.60;;;;;;5155071;27;20035;-79
2021/12/30 03:17:49;;;;;;;47.13;10.48;;;7.40;98.70;;;;;;5155016;27;20050;-78
2021/12/30 03:20:15;;;;;;;49.25;10.57;;;7.40;98.60;;;;;;5154992;27;20031;-79
2021/12/30 03:22:43;;;;;;;54.75;11.88;;;7.40;98.60;;;;;;5155147;27;20035;-79
2021/12/30 03:25:11;;;;;;;62.15;12.27;;;7.40;98.70;;;;;;5137587;27;20038;-79
2021/12/30 03:27:36;;;;;;;56.35;11.68;;;7.50;98.70;;;;;;5154928;27;20054;-79
2021/12/30 03:30:09;;;;;;;63.75;12.57;;;7.40;98.70;;;;;;5137629;27;20031;-79
2021/12/30 03:32:35;;;;;;;64.85;12.60;;;7.40;98.70;;;;;;5137349;27;20049;-79
2021/12/30 03:35:01;;;;;;;61.45;12.68;;;7.50;98.70;;;;;;5137324;27;20039;-79
2021/12/30 03:37:27;;;;;;;77.60;14.35;;;7.50;98.80;;;;;;5154928;27;20041;-79
2021/12/30 03:39:53;;;;;;;57.35;12.68;;;7.50;99.10;;;;;;5137440;27;20039;-80
2021/12/30 03:42:18;;;;;;;58.47;13.45;;;7.50;99.00;;;;;;5137323;27;20047;-78
2021/12/30 03:44:45;;;;;;;64.47;12.73;;;7.50;99.00;;;;;;5154393;27;20042;-80
2021/12/30 03:47:15;;;;;;;64.90;14.73;;;7.50;99.10;;;;;;5154377;27;20542;-80
2021/12/30 03:49:44;;;;;;;65.68;13.15;;;7.50;99.00;;;;;;5121473;27;20510;-79
2021/12/30 03:52:14;;;;;;;62.60;14.93;;;7.50;99.10;;;;;;5137819;27;20379;-80
2021/12/30 03:54:40;;;;;;;75.63;16.30;;;7.50;99.00;;;;;;5154309;27;20046;-80
2021/12/30 03:57:06;;;;;;;72.03;15.73;;;7.60;99.10;;;;;;5154329;27;20118;-80
2021/12/30 03:59:32;;;;;;;59.28;14.80;;;7.60;99.10;;;;;;5137083;27;20526;-78
2021/12/30 04:01:57;;;;;;;70.53;15.95;;;7.60;99.20;;;;;;5137240;27;20049;-79
2021/12/30 04:04:23;;;;;;;54.08;14.55;;;7.50;99.10;;;;;;5154005;27;20513;-79
2021/12/30 04:06:49;;;;;;;56.67;14.93;;;7.50;99.20;;;;;;5154098;27;20394;-79
2021/12/30 04:09:15;;;;;;;68.60;17.30;;;7.50;99.10;;;;;;5154336;27;20045;-79
2021/12/30 04:11:41;;;;;;;63.10;13.02;;;7.60;99.20;;;;;;5157780;27;20042;-79
2021/12/30 04:14:06;;;;;;;66.47;15.20;;;7.60;99.10;;;;;;5140179;27;20042;-80
2021/12/30 04:16:34;;;;;;;65.65;14.73;;;7.70;99.30;;;;;;5157289;27;20038;-79
2021/12/30 04:19:00;;;;;;;72.85;15.52;;;7.80;99.30;;;;;;5157338;27;20045;-79
2021/12/30 04:21:26;;;;;;;66.85;15.05;;;8.00;99.30;;;;;;5157353;27;20074;-79
2021/12/30 04:23:52;;;;;;;73.45;16.27;;;8.10;99.30;;;;;;5156663;27;20042;-80
2021/12/30 04:26:18;;;;;;;61.05;15.52;;;8.20;99.10;;;;;;5139882;27;20038;-79
2021/12/30 04:28:44;;;;;;;73.57;15.13;;;8.30;99.20;;;;;;5157195;27;20041;-79
2021/12/30 04:31:10;;;;;;;68.88;15.30;;;8.40;99.20;;;;;;5157124;27;20039;-80
2021/12/30 04:33:36;;;;;;;70.28;14.75;;;8.50;99.50;;;;;;5157193;27;20401;-79
2021/12/30 04:36:03;;;;;;;82.68;17.13;;;8.50;99.60;;;;;;5156987;27;20042;-78
2021/12/30 04:38:30;;;;;;;83.60;16.77;;;8.50;99.40;;;;;;5157145;27;20042;-79
2021/12/30 04:40:57;;;;;;;89.43;18.05;;;8.50;99.50;;;;;;5139793;27;20151;-80
2021/12/30 04:43:23;;;;;;;73.88;16.92;;;8.50;99.40;;;;;;5139723;27;20043;-79
2021/12/30 04:45:49;;;;;;;75.57;18.92;;;8.50;99.40;;;;;;5156684;27;20409;-79
2021/12/30 04:48:16;;;;;;;85.82;22.25;;;8.50;99.30;;;;;;5139744;27;20038;-80
2021/12/30 04:50:44;;;;;;;82.97;20.95;;;8.50;99.30;;;;;;5156717;27;20061;-80
2021/12/30 04:53:11;;;;;;;97.07;21.02;;;8.50;99.50;;;;;;5139942;27;20046;-79
2021/12/30 04:55:37;;;;;;;101.43;23.48;;;8.50;99.50;;;;;;5156830;27;20069;-79
2021/12/30 04:58:04;;;;;;;117.05;25.40;;;8.60;99.70;;;;;;5156761;27;20122;-79
2021/12/30 05:00:31;;;;;;;110.25;27.45;;;8.60;99.70;;;;;;5156896;27;20130;-80
2021/12/30 05:05:33;;;;;;;100.88;26.25;;;8.70;99.70;;;;;;5156672;27;20545;-79
2021/12/30 05:07:59;;;;;;;103.15;28.13;;;8.70;99.70;;;;;;5157026;27;20538;-79
2021/12/30 05:10:24;;;;;;;98.78;28.17;;;8.80;99.60;;;;;;5156420;27;20050;-77
2021/12/30 05:12:50;;;;;;;105.57;29.67;;;8.80;99.70;;;;;;5156637;27;20039;-79
2021/12/30 05:15:16;;;;;;;102.22;29.75;;;9.00;99.50;;;;;;5156598;27;20052;-78
2021/12/30 05:17:43;;;;;;;110.35;29.50;;;9.00;99.50;;;;;;5139427;27;20069;-78
2021/12/30 05:20:10;;;;;;;107.68;31.92;;;9.00;99.40;;;;;;5122469;27;20102;-78
2021/12/30 05:22:36;;;;;;;111.97;30.30;;;9.10;99.70;;;;;;5156866;27;20038;-78
2021/12/30 05:25:02;;;;;;;99.65;30.48;;;9.10;99.70;;;;;;5156368;27;20482;-79
2021/12/30 05:27:28;;;;;;;107.72;31.15;;;9.10;99.70;;;;;;5139283;27;20042;-79
2021/12/30 05:29:53;;;;;;;85.28;27.75;;;9.10;99.70;;;;;;5139353;27;20042;-79
2021/12/30 05:32:19;;;;;;;114.60;32.42;;;9.20;99.60;;;;;;5156515;27;20069;-79
2021/12/30 05:34:45;;;;;;;101.60;30.92;;;9.20;99.70;;;;;;5139273;27;20401;-80
2021/12/30 05:37:10;;;;;;;102.15;31.38;;;9.20;99.50;;;;;;5142080;27;20038;-79
2021/12/30 05:39:40;;;;;;;105.93;32.75;;;9.30;99.50;;;;;;5143383;27;20046;-78
2021/12/30 05:42:06;;;;;;;112.78;33.08;;;9.30;99.70;;;;;;5160727;27;20379;-78
2021/12/30 05:44:32;;;;;;;127.40;35.53;;;9.30;99.60;;;;;;5160205;27;20038;-78
2021/12/30 05:46:57;;;;;;;115.72;32.65;;;9.30;99.60;;;;;;5160391;27;20242;-79
2021/12/30 05:49:23;;;;;;;112.80;33.92;;;9.30;99.70;;;;;;5160321;27;20030;-79
2021/12/30 05:51:49;;;;;;;114.85;34.03;;;9.30;99.60;;;;;;5142993;27;20136;-79
2021/12/30 05:54:15;;;;;;;109.50;34.45;;;9.30;99.50;;;;;;5159974;27;20128;-79
2021/12/30 05:56:40;;;;;;;111.90;31.27;;;9.30;99.40;;;;;;5142792;27;20049;-79
2021/12/30 05:59:06;;;;;;;114.72;36.58;;;9.20;99.60;;;;;;5160106;27;20049;-78
2021/12/30 06:01:32;;;;;;;142.85;38.15;;;9.20;99.70;;;;;;5159991;27;20125;-78
2021/12/30 06:03:58;;;;;;;169.05;43.15;;;9.20;99.60;;;;;;5160023;27;20073;-78
2021/12/30 06:06:24;;;;;;;174.88;42.58;;;9.30;99.70;;;;;;5159940;27;20034;-77
2021/12/30 06:08:51;;;;;;;150.20;40.22;;;9.30;99.70;;;;;;5159869;27;20038;-79
2021/12/30 06:11:17;;;;;;;164.05;39.03;;;9.30;99.70;;;;;;5159757;27;20046;-78
2021/12/30 06:13:43;;;;;;;134.30;37.80;;;9.40;99.80;;;;;;5159774;27;20042;-79
2021/12/30 06:16:08;;;;;;;125.28;36.40;;;9.30;99.80;;;;;;5142411;27;20041;-78
2021/12/30 06:18:34;;;;;;;146.50;38.95;;;9.40;99.90;;;;;;5159753;27;20042;-79
2021/12/30 06:21:00;;;;;;;139.82;37.70;;;9.40;99.80;;;;;;5142365;27;20049;-79
2021/12/30 06:23:25;;;;;;;139.15;37.10;;;9.30;99.80;;;;;;5159744;27;20082;-79
2021/12/30 06:25:51;;;;;;;154.57;42.35;;;9.40;99.90;;;;;;5142288;27;20482;-80
2021/12/30 06:28:17;;;;;;;124.45;36.22;;;9.40;99.90;;;;;;5159809;27;20154;-79
2021/12/30 06:30:43;;;;;;;148.90;38.90;;;9.40;99.90;;;;;;5159438;27;20030;-79
2021/12/30 06:33:08;;;;;;;117.95;34.95;;;9.40;99.90;;;;;;5159442;27;20046;-80
2021/12/30 06:35:34;;;;;;;132.43;38.10;;;9.40;99.80;;;;;;5159541;27;20070;-79
2021/12/30 06:38:02;;;;;;;113.55;35.25;;;9.40;99.90;;;;;;5159523;27;20493;-80
2021/12/30 06:40:28;;;;;;;105.00;34.15;;;9.40;99.80;;;;;;5159579;27;20045;-79
2021/12/30 06:42:53;;;;;;;93.82;31.70;;;9.50;99.90;;;;;;5159497;27;20053;-79
2021/12/30 06:45:19;;;;;;;81.45;28.42;;;9.60;99.90;;;;;;5142320;27;20382;-80
2021/12/30 06:47:46;;;;;;;77.68;30.27;;;9.60;99.90;;;;;;5141626;27;20493;-80
2021/12/30 06:50:14;;;;;;;79.10;28.02;;;9.80;99.90;;;;;;5141838;27;20045;-80
2021/12/30 06:52:43;;;;;;;66.00;25.23;;;10.00;99.90;;;;;;5159356;27;20385;-80
2021/12/30 06:55:09;;;;;;;62.20;23.88;;;10.00;99.80;;;;;;5141879;27;20065;-79
2021/12/30 06:57:35;;;;;;;59.88;23.40;;;10.10;99.90;;;;;;5158924;27;20038;-79
2021/12/30 07:00:04;;;;;;;58.38;23.67;;;10.10;99.90;;;;;;5124662;27;20046;-79
2021/12/30 07:02:30;;;;;;;62.00;21.73;;;10.20;99.80;;;;;;5141545;27;20486;-79
2021/12/30 07:04:56;;;;;;;50.28;20.88;;;10.30;99.90;;;;;;5158667;27;20042;-80
2021/12/30 07:07:21;;;;;;;52.60;20.10;;;10.40;99.80;;;;;;5141483;27;20092;-80
2021/12/30 07:09:47;;;;;;;48.60;18.10;;;10.40;99.90;;;;;;5158474;27;20054;-80
2021/12/30 07:12:13;;;;;;;43.88;18.45;;;10.40;99.90;;;;;;5158728;27;20042;-79
2021/12/30 07:14:39;;;;;;;42.60;15.40;;;10.40;99.90;;;;;;5141682;27;20046;-80
2021/12/30 07:17:05;;;;;;;37.47;15.65;;;10.40;99.80;;;;;;5158877;27;20034;-80
2021/12/30 07:19:31;;;;;;;31.70;13.07;;;10.50;99.90;;;;;;5141308;27;20046;-80
2021/12/30 07:21:57;;;;;;;25.77;11.75;;;10.50;99.80;;;;;;5158372;27;20124;-80
2021/12/30 07:24:23;;;;;;;26.80;11.80;;;10.50;99.80;;;;;;5158755;27;20134;-80
2021/12/30 07:26:49;;;;;;;23.67;10.48;;;10.50;99.80;;;;;;5141829;27;20067;-78
2021/12/30 07:29:15;;;;;;;19.77;10.10;;;10.60;99.80;;;;;;5159104;27;20037;-79
2021/12/30 07:31:41;;;;;;;26.33;10.57;;;10.60;99.80;;;;;;5158761;27;20413;-80
2021/12/30 07:34:06;;;;;;;24.33;11.02;;;10.70;99.90;;;;;;5159041;27;20038;-80
2021/12/30 07:36:32;;;;;;;27.80;10.43;;;10.70;99.90;;;;;;5141414;27;20561;-80
2021/12/30 07:38:58;;;;;;;24.90;9.60;;;10.70;99.90;;;;;;5158887;27;20126;-80
2021/12/30 07:41:23;;;;;;;27.38;11.13;;;10.70;99.80;;;;;;5141457;27;20038;-79
2021/12/30 07:43:49;;;;;;;23.60;10.18;;;10.70;99.80;;;;;;5158681;27;20141;-80
2021/12/30 07:46:15;;;;;;;21.77;10.57;;;10.70;99.80;;;;;;5157776;27;20030;-81
2021/12/30 07:48:41;;;;;;;18.88;10.13;;;10.70;99.80;;;;;;5158025;27;20038;-80
2021/12/30 07:51:07;;;;;;;22.92;10.80;;;10.70;99.80;;;;;;5155484;27;20037;-80
2021/12/30 07:53:33;;;;;;;22.20;10.70;;;10.60;99.80;;;;;;5140691;27;20034;-81
2021/12/30 07:56:01;;;;;;;27.65;11.25;;;10.80;99.80;;;;;;5137937;27;20397;-80
2021/12/30 07:58:28;;;;;;;22.38;11.30;;;10.70;99.80;;;;;;5179541;27;20034;-80
2021/12/30 08:00:54;;;;;;;21.00;11.05;;;10.80;99.80;;;;;;5154337;27;20049;-80
2021/12/30 08:03:20;;;;;;;25.77;10.70;;;10.80;99.80;;;;;;5153708;27;20042;-78
2021/12/30 08:05:45;;;;;;;31.85;11.02;;;10.80;99.70;;;;;;5136977;27;20022;-79
2021/12/30 08:08:12;;;;;;;26.80;9.85;;;10.90;99.60;;;;;;5155713;27;20085;-80
2021/12/30 08:10:37;;;;;;;25.38;9.75;;;10.90;99.70;;;;;;5155864;27;20043;-81
2021/12/30 08:13:03;;;;;;;29.48;9.48;;;10.90;99.70;;;;;;5120696;27;20141;-80
2021/12/30 08:15:29;;;;;;;25.98;8.57;;;10.90;99.70;;;;;;5139753;27;20445;-80
2021/12/30 08:17:55;;;;;;;29.08;8.90;;;10.90;99.60;;;;;;5157287;27;20038;-80
2021/12/30 08:20:22;;;;;;;27.13;7.60;;;10.90;99.50;;;;;;5123199;27;20504;-80
2021/12/30 08:22:50;;;;;;;24.98;7.47;;;11.00;99.60;;;;;;5157493;27;20050;-80
2021/12/30 08:25:16;;;;;;;15.00;6.13;;;11.00;99.60;;;;;;5123387;27;20078;-80
2021/12/30 08:27:45;;;;;;;22.55;6.88;;;11.00;99.60;;;;;;5157148;27;20034;-80
2021/12/30 08:30:13;;;;;;;27.88;7.20;;;11.10;99.40;;;;;;5157362;27;20034;-82
2021/12/30 08:32:40;;;;;;;21.23;5.68;;;11.10;99.40;;;;;;5139986;27;20047;-80
2021/12/30 08:35:07;;;;;;;23.88;5.93;;;11.10;99.40;;;;;;5140237;27;20042;-81
2021/12/30 08:37:34;;;;;;;17.77;4.68;;;11.10;99.40;;;;;;5157357;27;20478;-81
2021/12/30 08:40:02;;;;;;;19.83;5.00;;;11.20;99.40;;;;;;5140212;27;20038;-81
2021/12/30 08:42:29;;;;;;;26.35;6.35;;;11.20;99.40;;;;;;5139775;27;20069;-80
2021/12/30 08:44:57;;;;;;;23.55;5.70;;;11.20;99.40;;;;;;5139624;27;20087;-80
2021/12/30 08:47:24;;;;;;;15.52;4.13;;;11.20;99.40;;;;;;5156947;27;20035;-80
2021/12/30 08:49:50;;;;;;;13.80;3.65;;;11.20;99.40;;;;;;5157470;27;20038;-80
2021/12/30 08:52:19;;;;;;;19.52;4.43;;;11.30;99.30;;;;;;5157332;27;20482;-81
2021/12/30 08:54:47;;;;;;;16.45;4.32;;;11.30;99.20;;;;;;5140001;27;20389;-80
2021/12/30 08:57:14;;;;;;;15.23;2.90;;;11.30;99.20;;;;;;5157080;27;20042;-79
2021/12/30 08:59:39;;;;;;;20.48;5.07;;;11.30;99.20;;;;;;5156329;27;20031;-80
2021/12/30 09:02:06;;;;;;;19.33;4.50;;;11.30;99.10;;;;;;5113961;27;20046;-81
2021/12/30 09:04:32;;;;;;;12.93;3.75;;;11.30;99.20;;;;;;5138799;27;20035;-79
2021/12/30 09:06:59;;;;;;;19.58;5.80;;;11.40;99.10;;;;;;5156489;27;20406;-79
2021/12/30 09:09:25;;;;;;;20.38;4.78;;;11.40;99.00;;;;;;5139548;27;20038;-81
2021/12/30 09:11:51;;;;;;;11.68;3.38;;;11.40;99.00;;;;;;5124743;27;20133;-82
2021/12/30 09:14:18;;;;;;;18.77;4.05;;;11.40;99.00;;;;;;5143654;27;20121;-81
2021/12/30 09:16:43;;;;;;;16.00;3.80;;;11.40;99.00;;;;;;5126563;27;20049;-81
2021/12/30 09:19:10;;;;;;;13.40;4.13;;;11.40;98.90;;;;;;5160859;27;20042;-81
2021/12/30 09:21:40;;;;;;;19.83;5.35;;;11.40;99.00;;;;;;5143581;27;20507;-80
2021/12/30 09:24:07;;;;;;;14.88;3.95;;;11.40;98.80;;;;;;5160484;27;20046;-80
2021/12/30 09:26:33;;;;;;;15.25;3.60;;;11.40;99.00;;;;;;5143154;27;20034;-82
2021/12/30 09:29:00;;;;;;;18.60;4.10;;;11.40;98.80;;;;;;5160469;27;20118;-81
2021/12/30 09:31:28;;;;;;;18.27;4.72;;;11.40;98.80;;;;;;5160963;27;20034;-81
2021/12/30 09:33:55;;;;;;;14.70;3.90;;;11.50;98.80;;;;;;5160888;27;20074;-80
2021/12/30 09:36:22;;;;;;;20.33;4.78;;;11.50;98.60;;;;;;5143537;27;20386;-80
2021/12/30 09:38:48;;;;;;;18.02;3.83;;;11.50;98.60;;;;;;5126501;27;20518;-80
2021/12/30 09:41:14;;;;;;;20.52;4.65;;;11.50;98.50;;;;;;5143417;27;20077;-80
2021/12/30 09:43:40;;;;;;;22.67;5.75;;;11.50;98.50;;;;;;5126240;27;20071;-79
2021/12/30 09:46:06;;;;;;;22.30;5.40;;;11.50;98.30;;;;;;5160230;27;20504;-79
2021/12/30 09:48:31;;;;;;;20.95;5.25;;;11.50;98.30;;;;;;5125901;27;20464;-80
2021/12/30 09:50:58;;;;;;;18.92;4.35;;;11.50;98.30;;;;;;5143114;27;20117;-79
2021/12/30 09:53:26;;;;;;;12.60;3.63;;;11.50;98.20;;;;;;5160369;27;20080;-77
2021/12/30 09:55:55;;;;;;;18.13;3.55;;;11.60;98.20;;;;;;5143112;27;20038;-78
2021/12/30 09:58:21;;;;;;;15.00;3.40;;;11.50;98.20;;;;;;5143096;27;20042;-78
2021/12/30 10:00:47;;;;;;;23.10;3.95;;;11.60;98.20;;;;;;5160361;27;20045;-78
2021/12/30 10:03:13;;;;;;;25.27;5.88;;;11.70;98.10;;;;;;5142690;27;20039;-80
2021/12/30 10:05:41;;;;;;;21.58;4.68;;;11.70;98.10;;;;;;5125878;27;20053;-78
2021/12/30 10:08:11;;;;;;;18.90;4.40;;;11.70;98.10;;;;;;5142728;27;20043;-78
2021/12/30 10:10:39;;;;;;;21.02;3.75;;;11.70;98.00;;;;;;5159834;27;20058;-79
2021/12/30 10:13:29;;;;;;;17.95;5.22;;;11.70;98.00;;;;;;5142964;27;20047;-79
2021/12/30 10:16:09;;;;;;;17.70;4.95;;;11.70;97.70;;;;;;5159946;27;20069;-78
2021/12/30 10:18:50;;;;;;;17.85;4.30;;;11.70;97.80;;;;;;5159140;27;20058;-79
2021/12/30 10:21:27;;;;;;;13.80;3.72;;;11.70;97.60;;;;;;5159084;27;20042;-79
2021/12/30 10:23:58;;;;;;;17.40;4.70;;;11.80;97.50;;;;;;5157278;27;20129;-80
2021/12/30 10:26:25;;;;;;;19.65;4.60;;;11.80;97.50;;;;;;5158400;27;20038;-80
2021/12/30 10:29:02;;;;;;;26.63;6.32;;;11.70;97.30;;;;;;5159373;27;20166;-80
2021/12/30 10:31:31;;;;;;;21.40;5.18;;;11.80;97.40;;;;;;5159446;27;20039;-79
2021/12/30 10:33:56;;;;;;;29.90;5.10;;;11.70;97.50;;;;;;5159814;27;20401;-80
2021/12/30 10:36:33;;;;;;;31.10;6.95;;;11.70;97.50;;;;;;5159666;27;20034;-79
2021/12/30 10:39:18;;;;;;;21.38;5.35;;;11.70;97.50;;;;;;5142161;27;20042;-79
2021/12/30 10:41:44;;;;;;;24.50;7.05;;;11.70;97.50;;;;;;5159339;27;20042;-79
2021/12/30 10:44:10;;;;;;;32.92;7.57;;;11.70;97.50;;;;;;5124923;27;20064;-80
2021/12/30 10:46:36;;;;;;;29.90;7.05;;;11.70;97.50;;;;;;5159499;27;20177;-80
2021/12/30 10:49:11;;;;;;;33.33;6.55;;;11.70;97.60;;;;;;5124810;27;20038;-79
2021/12/30 10:51:43;;;;;;;35.22;7.30;;;11.80;97.50;;;;;;5141819;27;20087;-78
2021/12/30 10:54:18;;;;;;;33.67;7.97;;;11.80;97.30;;;;;;5159093;27;20046;-79
2021/12/30 10:56:46;;;;;;;30.48;7.43;;;11.80;97.30;;;;;;5158984;27;20494;-79
2021/12/30 10:59:35;;;;;;;33.80;6.72;;;11.80;97.20;;;;;;5159209;27;20034;-78
2021/12/30 11:02:08;;;;;;;35.08;7.97;;;11.80;97.20;;;;;;5141090;27;20052;-78
2021/12/30 11:04:49;;;;;;;45.22;8.63;;;11.80;97.10;;;;;;5158801;27;20121;-79
2021/12/30 11:07:18;;;;;;;38.28;9.32;;;11.80;97.10;;;;;;5158724;27;20509;-79
2021/12/30 11:09:54;;;;;;;37.63;7.85;;;11.70;97.20;;;;;;5141538;27;20085;-79
2021/12/30 11:12:41;;;;;;;34.40;8.65;;;11.80;97.10;;;;;;5158853;27;20490;-79
2021/12/30 11:15:25;;;;;;;30.35;9.00;;;11.80;97.30;;;;;;5159214;27;20410;-79
2021/12/30 11:18:05;;;;;;;43.97;8.73;;;11.80;97.00;;;;;;5158712;27;20045;-79
2021/12/30 11:20:38;;;;;;;45.25;8.93;;;11.80;97.00;;;;;;5141257;27;20125;-79
2021/12/30 11:23:04;;;;;;;31.95;7.47;;;11.70;96.90;;;;;;5158541;27;20046;-78
2021/12/30 11:25:31;;;;;;;41.42;9.80;;;11.80;97.00;;;;;;5158771;27;20042;-79
2021/12/30 11:27:57;;;;;;;38.25;8.38;;;11.70;96.90;;;;;;5158450;27;20393;-78
2021/12/30 11:30:23;;;;;;;40.08;9.30;;;11.80;96.90;;;;;;5141077;27;20034;-78
2021/12/30 11:32:49;;;;;;;45.15;8.75;;;11.80;96.80;;;;;;5158178;27;20038;-78
2021/12/30 11:35:17;;;;;;;35.67;8.27;;;11.80;96.90;;;;;;5157548;27;20082;-78
2021/12/30 11:37:45;;;;;;;37.47;9.02;;;11.70;96.90;;;;;;5158117;27;20039;-79
2021/12/30 11:40:14;;;;;;;38.67;8.57;;;11.80;96.90;;;;;;5140814;27;20485;-78
2021/12/30 11:42:46;;;;;;;41.60;10.43;;;11.80;96.90;;;;;;5158429;27;20120;-79
2021/12/30 11:45:42;;;;;;;39.70;8.70;;;11.70;97.00;;;;;;5157917;27;20175;-78
2021/12/30 11:48:26;;;;;;;39.75;8.57;;;11.80;96.70;;;;;;5123938;27;20091;-78
2021/12/30 11:51:12;;;;;;;40.33;9.67;;;11.80;96.70;;;;;;5157852;27;20038;-78
2021/12/30 11:53:39;;;;;;;30.95;8.38;;;11.70;96.80;;;;;;5140685;27;20568;-78
2021/12/30 11:56:10;;;;;;;32.88;7.70;;;11.70;96.80;;;;;;5157670;27;20070;-78
2021/12/30 11:58:40;;;;;;;27.48;7.10;;;11.80;96.60;;;;;;5157839;27;20045;-78
2021/12/30 12:01:12;;;;;;;37.65;8.90;;;11.80;96.80;;;;;;5157704;27;20136;-78
2021/12/30 12:03:44;;;;;;;39.53;8.00;;;11.80;96.50;;;;;;5140318;27;20508;-78
2021/12/30 12:06:42;;;;;;;34.38;9.15;;;11.80;96.70;;;;;;5157719;27;20030;-78
2021/12/30 12:09:32;;;;;;;36.88;9.07;;;11.80;96.70;;;;;;5112622;27;20054;-78
2021/12/30 12:12:05;;;;;;;33.00;8.18;;;11.90;96.80;;;;;;5157565;27;20102;-79
2021/12/30 12:14:39;;;;;;;28.95;6.90;;;11.90;96.80;;;;;;5157566;27;20034;-79
2021/12/30 12:17:27;;;;;;;32.97;7.40;;;11.90;96.80;;;;;;5140414;27;20034;-78
2021/12/30 12:19:55;;;;;;;42.38;9.93;;;12.00;96.60;;;;;;5140317;27;20389;-78
2021/12/30 12:22:20;;;;;;;39.90;7.97;;;12.00;96.60;;;;;;5157602;27;20490;-78
2021/12/30 12:24:47;;;;;;;30.42;7.72;;;12.00;96.70;;;;;;5140061;27;20137;-77
2021/12/30 12:27:19;;;;;;;29.77;8.52;;;12.00;96.70;;;;;;5140059;27;20482;-78
2021/12/30 12:29:46;;;;;;;33.58;6.18;;;12.00;96.60;;;;;;5139999;27;20150;-78
2021/12/30 12:32:15;;;;;;;22.98;5.43;;;12.00;96.70;;;;;;5157113;27;20047;-78
2021/12/30 12:34:50;;;;;;;30.90;6.80;;;12.10;96.20;;;;;;5157404;27;20042;-78
2021/12/30 12:37:39;;;;;;;26.95;6.47;;;12.00;96.30;;;;;;5157670;27;20060;-78
2021/12/30 12:40:13;;;;;;;26.80;6.90;;;12.00;96.30;;;;;;5139886;27;20076;-78
2021/12/30 12:42:51;;;;;;;27.58;5.88;;;12.00;96.30;;;;;;5157166;27;20053;-79